Time;durP1;ratioP1;P1;durP2;ratioP2;P2;SDS_P1;SDS_P2;PMS_P1;PMS_P2;Temp;Humidity;BMP_temperature;BMP_pressure;BME280_temperature;BME280_humidity;BME280_pressure;Samples;Min_cycle;Max_cycle;Signal;HPM_P1;HPM_P2
2021/12/06 12:40:25;;;;;;;7.43;4.53;;;;;;;2.62;100.00;95008.38;5076673;27;20185;-65
2021/12/06 12:43:11;;;;;;;7.63;5.35;;;;;;;2.65;100.00;94994.72;5061130;28;20430;-64
2021/12/06 12:45:53;;;;;;;7.38;4.65;;;;;;;2.59;100.00;94992.91;5068686;28;20767;-64
2021/12/06 12:48:23;;;;;;;4.85;3.90;;;;;;;2.55;100.00;94984.63;5065412;28;20035;-64
2021/12/06 12:51:11;;;;;;;6.13;4.47;;;;;;;2.56;100.00;94980.13;5058243;28;20032;-62
2021/12/06 12:54:31;;;;;;;7.35;4.43;;;;;;;2.52;100.00;94971.84;5041020;28;20078;-61
2021/12/06 12:57:14;;;;;;;3.92;3.35;;;;;;;2.36;100.00;94963.66;5037687;28;20029;-63
2021/12/06 12:59:57;;;;;;;5.30;4.05;;;;;;;2.21;100.00;94953.41;5050103;28;20098;-64
2021/12/06 13:02:36;;;;;;;5.28;3.80;;;;;;;2.17;100.00;94957.47;5057095;28;20357;-63
2021/12/06 13:05:07;;;;;;;7.43;4.13;;;;;;;2.10;100.00;94952.28;5054268;28;20037;-64
2021/12/06 13:07:55;;;;;;;4.25;3.20;;;;;;;2.02;100.00;94950.69;5054859;28;20032;-64
2021/12/06 13:10:23;;;;;;;4.68;3.33;;;;;;;2.00;100.00;94947.47;5058444;28;20506;-65
2021/12/06 13:12:58;;;;;;;4.07;3.28;;;;;;;1.95;100.00;94936.75;5051095;28;20033;-63
2021/12/06 13:15:44;;;;;;;3.88;2.88;;;;;;;1.81;100.00;94935.22;5039982;28;20407;-65
2021/12/06 13:18:35;;;;;;;4.38;2.90;;;;;;;1.74;100.00;94929.19;5058558;28;20104;-65
2021/12/06 13:21:32;;;;;;;4.35;2.72;;;;;;;1.68;100.00;94930.84;5047652;28;20115;-65
2021/12/06 13:24:12;;;;;;;5.57;3.28;;;;;;;1.71;100.00;94926.94;5052751;28;20380;-65
2021/12/06 13:26:43;;;;;;;3.47;2.42;;;;;;;1.73;100.00;94914.34;5048910;28;20383;-65
2021/12/06 13:29:23;;;;;;;4.65;3.03;;;;;;;1.78;100.00;94917.16;5047591;28;20024;-66
2021/12/06 13:32:27;;;;;;;4.82;2.80;;;;;;;1.82;100.00;94912.25;5047734;28;20031;-65
2021/12/06 13:35:19;;;;;;;3.85;2.53;;;;;;;1.83;100.00;94898.03;5059708;28;20498;-62
2021/12/06 13:38:04;;;;;;;3.55;2.65;;;;;;;1.86;100.00;94906.34;5058230;28;20040;-64
2021/12/06 13:40:31;;;;;;;3.70;2.75;;;;;;;1.89;100.00;94902.44;5068305;28;20020;-64
2021/12/06 13:43:33;;;;;;;4.72;2.60;;;;;;;1.85;100.00;94899.44;5067172;28;20413;-63
2021/12/06 13:46:23;;;;;;;2.53;2.30;;;;;;;1.86;100.00;94898.41;5047232;28;20039;-64
2021/12/06 13:48:51;;;;;;;3.80;2.92;;;;;;;1.87;100.00;94899.22;5067451;28;20025;-64
2021/12/06 13:51:41;;;;;;;3.88;2.72;;;;;;;1.93;100.00;94893.88;5054603;28;20079;-64
2021/12/06 13:54:30;;;;;;;3.28;2.63;;;;;;;1.99;100.00;94877.19;5054874;28;20066;-62
2021/12/06 13:57:03;;;;;;;3.13;2.38;;;;;;;2.07;100.00;94884.03;5054974;28;20025;-64
2021/12/06 13:59:39;;;;;;;2.55;2.30;;;;;;;2.03;100.00;94877.53;5054745;28;20025;-64
2021/12/06 14:02:24;;;;;;;3.30;2.58;;;;;;;2.12;100.00;94875.44;5054507;28;20031;-65
2021/12/06 14:04:50;;;;;;;3.60;2.50;;;;;;;2.28;100.00;94865.13;5053773;28;20036;-65
2021/12/06 14:07:21;;;;;;;3.55;2.72;;;;;;;2.35;100.00;94866.88;5053571;28;20460;-64
2021/12/06 14:09:52;;;;;;;2.85;2.50;;;;;;;2.48;100.00;94861.44;5053222;28;20159;-64
2021/12/06 14:12:29;;;;;;;3.67;2.72;;;;;;;2.51;100.00;94858.38;5036818;28;20032;-64
2021/12/06 14:17:59;;;;;;;4.30;2.72;;;;;;;2.40;100.00;94865.22;5020277;28;20026;-64
2021/12/06 14:20:25;;;;;;;4.22;2.95;;;;;;;2.30;100.00;94859.63;5034292;28;20115;-64
2021/12/06 14:22:51;;;;;;;4.57;3.00;;;;;;;2.16;100.00;94858.13;5034427;28;20033;-62
2021/12/06 14:25:22;;;;;;;6.40;2.92;;;;;;;2.09;100.00;94850.25;5034524;28;20439;-62
2021/12/06 14:27:49;;;;;;;5.25;2.63;;;;;;;1.97;100.00;94846.72;5000389;28;20024;-64
2021/12/06 14:30:24;;;;;;;3.33;2.72;;;;;;;1.84;100.00;94841.53;5033321;28;20443;-64
2021/12/06 14:32:56;;;;;;;4.43;2.72;;;;;;;1.71;100.00;94845.91;5040991;28;20128;-63
2021/12/06 14:35:27;;;;;;;4.33;2.80;;;;;;;1.58;100.00;94842.56;5053054;28;20064;-64
2021/12/06 14:37:53;;;;;;;3.90;2.83;;;;;;;1.49;100.00;94839.38;5052614;28;20299;-63
2021/12/06 14:40:23;;;;;;;4.97;2.78;;;;;;;1.39;100.00;94831.94;5036383;28;20036;-64
2021/12/06 14:42:49;;;;;;;3.35;2.63;;;;;;;1.26;100.00;94831.22;5052818;28;20040;-64
2021/12/06 14:45:23;;;;;;;7.03;3.00;;;;;;;1.19;100.00;94830.44;5052619;28;20021;-63
2021/12/06 14:48:04;;;;;;;4.45;3.03;;;;;;;1.08;100.00;94824.81;5052919;28;20023;-64
2021/12/06 14:50:38;;;;;;;3.00;2.38;;;;;;;0.97;100.00;94836.06;5032638;28;20481;-64
2021/12/06 14:53:21;;;;;;;3.60;2.70;;;;;;;0.87;100.00;94827.81;5034032;28;20029;-65
2021/12/06 14:58:40;;;;;;;3.65;2.50;;;;;;;0.67;100.00;94827.09;5033882;28;20129;-65
2021/12/06 15:01:29;;;;;;;4.18;2.80;;;;;;;0.55;100.00;94826.94;5031584;28;20072;-65
2021/12/06 15:04:17;;;;;;;5.85;2.78;;;;;;;0.48;100.00;94829.59;5033895;28;20034;-65
2021/12/06 15:06:49;;;;;;;3.33;2.60;;;;;;;0.42;100.00;94826.97;5032950;28;20429;-66
2021/12/06 15:09:16;;;;;;;5.22;2.67;;;;;;;0.36;100.00;94825.19;5032415;28;20384;-66
2021/12/06 15:12:01;;;;;;;3.60;2.85;;;;;;;0.29;100.00;94817.28;5032458;28;20029;-65
2021/12/06 15:14:30;;;;;;;3.80;2.78;;;;;;;0.23;100.00;94815.50;5032674;28;20448;-64
2021/12/06 15:16:55;;;;;;;2.60;2.22;;;;;;;0.20;100.00;94821.16;5015934;28;20451;-64
2021/12/06 15:19:21;;;;;;;4.78;2.47;;;;;;;0.16;100.00;94822.59;5033520;28;20061;-64
2021/12/06 15:21:54;;;;;;;5.45;4.00;;;;;;;0.10;100.00;94818.97;5032134;28;20021;-64
2021/12/06 15:24:22;;;;;;;6.53;3.70;;;;;;;0.02;100.00;94818.41;5015897;28;20049;-65
2021/12/06 15:26:54;;;;;;;6.60;3.25;;;;;;;-0.06;100.00;94824.69;5031999;28;20026;-65
2021/12/06 15:29:33;;;;;;;5.45;2.80;;;;;;;-0.12;100.00;94817.59;5032240;28;20024;-65
2021/12/06 15:32:02;;;;;;;3.83;2.80;;;;;;;-0.16;100.00;94816.38;5032008;28;20108;-66
2021/12/06 15:34:30;;;;;;;3.95;2.95;;;;;;;-0.26;100.00;94814.19;5040071;28;20129;-65
2021/12/06 15:36:58;;;;;;;4.53;2.60;;;;;;;-0.34;100.00;94803.84;5035459;28;20032;-65
2021/12/06 15:39:25;;;;;;;5.70;2.92;;;;;;;-0.43;100.00;94807.72;5052757;28;20052;-65
2021/12/06 15:42:19;;;;;;;5.78;3.28;;;;;;;-0.55;100.00;94794.34;5053020;28;20029;-64
2021/12/06 15:44:48;;;;;;;5.65;3.20;;;;;;;-0.67;100.00;94803.88;5051868;28;20082;-66
2021/12/06 15:47:21;;;;;;;5.80;2.78;;;;;;;-0.81;100.00;94804.88;5051886;28;20051;-66
2021/12/06 15:49:50;;;;;;;;;;;;;;;-0.95;100.00;94810.13;5052434;28;20032;-68
2021/12/06 15:52:36;;;;;;;5.72;2.55;;;;;;;-1.09;100.00;94805.84;5040766;28;19909;-64
2021/12/06 15:55:11;;;;;;;3.63;2.65;;;;;;;-1.25;100.00;94804.41;5044372;28;20033;-65
2021/12/06 15:57:41;;;;;;;3.70;2.72;;;;;;;-1.39;100.00;94808.00;5040729;28;20029;-65
2021/12/06 16:00:22;;;;;;;5.43;3.05;;;;;;;-1.52;100.00;94794.81;5034142;28;20025;-66
2021/12/06 16:02:53;;;;;;;4.25;2.85;;;;;;;-1.61;100.00;94798.66;5034342;28;20035;-64
2021/12/06 16:05:33;;;;;;;3.97;2.80;;;;;;;-1.72;100.00;94793.97;5021130;28;20025;-66
2021/12/06 16:08:15;;;;;;;3.30;2.63;;;;;;;-1.83;100.00;94792.69;5031477;28;20020;-63
2021/12/06 16:10:43;;;;;;;5.07;2.63;;;;;;;-1.92;100.00;94791.25;5038981;28;20111;-64
2021/12/06 16:13:15;;;;;;;3.53;2.58;;;;;;;-2.02;100.00;94785.53;5039607;28;20025;-64
2021/12/06 16:15:46;;;;;;;3.92;2.72;;;;;;;-2.11;100.00;94769.94;5033116;28;20061;-64
2021/12/06 16:18:14;;;;;;;3.70;2.67;;;;;;;-2.19;100.00;94767.47;5019643;28;20571;-62
2021/12/06 16:20:48;;;;;;;3.58;2.42;;;;;;;-2.26;100.00;94768.47;5034980;28;20071;-64
2021/12/06 16:23:20;;;;;;;3.20;2.45;;;;;;;-2.36;100.00;94755.69;5039159;28;20024;-65
2021/12/06 16:25:57;;;;;;;5.72;2.97;;;;;;;-2.39;100.00;94758.69;5045080;28;20071;-64
2021/12/06 16:28:26;;;;;;;8.13;4.13;;;;;;;-2.46;100.00;94747.34;5041115;28;20026;-64
2021/12/06 16:30:54;;;;;;;4.45;3.22;;;;;;;-2.50;100.00;94744.28;5040918;28;20036;-64
2021/12/06 16:33:56;;;;;;;4.95;3.08;;;;;;;-2.53;100.00;94744.69;5044808;28;20021;-64
2021/12/06 16:36:30;;;;;;;5.40;3.08;;;;;;;-2.55;100.00;94727.53;5021998;28;20045;-64
2021/12/06 16:39:18;;;;;;;5.60;2.97;;;;;;;-2.59;100.00;94728.94;5039153;28;20041;-64
2021/12/06 16:42:01;;;;;;;4.75;3.03;;;;;;;-2.70;100.00;94717.16;5047962;28;20036;-64
2021/12/06 16:44:40;;;;;;;5.05;2.97;;;;;;;-2.72;100.00;94706.03;5046577;28;20057;-65
2021/12/06 16:47:34;;;;;;;5.68;3.67;;;;;;;-2.72;100.00;94692.94;5041017;28;20553;-65
2021/12/06 16:50:02;;;;;;;6.85;3.13;;;;;;;-2.74;100.00;94679.22;5025834;28;20119;-65
2021/12/06 16:52:57;;;;;;;6.70;3.63;;;;;;;-2.77;100.00;94677.00;5036268;28;20057;-64
2021/12/06 16:55:55;;;;;;;5.57;3.85;;;;;;;-2.80;100.00;94666.91;5024336;28;20109;-63
2021/12/06 16:58:32;;;;;;;6.28;4.30;;;;;;;-2.86;100.00;94657.16;5030795;28;20164;-64
2021/12/06 17:01:05;;;;;;;5.22;3.50;;;;;;;-2.89;100.00;94650.50;5042421;28;20036;-64
2021/12/06 17:03:48;;;;;;;6.53;4.00;;;;;;;-2.87;100.00;94640.63;5023096;28;20030;-63
2021/12/06 17:06:30;;;;;;;5.22;3.85;;;;;;;-2.85;100.00;94627.34;5030966;28;20095;-63
2021/12/06 17:08:59;;;;;;;5.15;3.60;;;;;;;-2.88;100.00;94618.06;5031716;28;20021;-63
2021/12/06 17:11:33;;;;;;;5.43;3.40;;;;;;;-2.87;100.00;94603.94;5023720;28;20026;-65
2021/12/06 17:14:05;;;;;;;4.40;3.55;;;;;;;-2.79;100.00;94592.50;5037829;28;20476;-65
2021/12/06 17:16:36;;;;;;;5.63;4.45;;;;;;;-2.73;100.00;94584.66;5021175;28;20376;-65
2021/12/06 17:19:09;;;;;;;7.22;4.25;;;;;;;-2.73;100.00;94562.88;5034962;28;20026;-65
2021/12/06 17:21:39;;;;;;;6.82;4.18;;;;;;;-2.66;100.00;94561.91;5045122;28;20025;-65
2021/12/06 17:24:12;;;;;;;5.90;3.65;;;;;;;-2.65;100.00;94550.41;5032269;28;20040;-65
2021/12/06 17:26:46;;;;;;;9.15;3.78;;;;;;;-2.64;100.00;94545.97;5043740;28;20484;-65
2021/12/06 17:29:17;;;;;;;4.50;3.20;;;;;;;-2.71;100.00;94542.53;5037675;28;20105;-65
2021/12/06 17:31:45;;;;;;;5.35;3.25;;;;;;;-2.79;100.00;94543.50;5045317;28;20106;-65
2021/12/06 17:34:19;;;;;;;5.45;3.88;;;;;;;-2.78;100.00;94532.03;5043668;28;20389;-64
2021/12/06 17:37:04;;;;;;;4.22;3.38;;;;;;;-2.81;100.00;94527.19;5045812;28;20084;-64
2021/12/06 17:39:31;;;;;;;4.07;3.13;;;;;;;-2.84;100.00;94513.66;5043868;28;20041;-64
2021/12/06 17:42:03;;;;;;;4.53;3.58;;;;;;;-2.90;100.00;94511.81;5045825;28;20073;-63
2021/12/06 17:44:31;;;;;;;6.00;3.50;;;;;;;-2.96;100.00;94497.69;5043314;28;20063;-63
2021/12/06 17:46:58;;;;;;;5.70;3.92;;;;;;;-2.99;100.00;94492.84;5041267;28;20437;-64
2021/12/06 17:49:28;;;;;;;5.25;3.40;;;;;;;-2.97;100.00;94478.53;5042314;28;20048;-64
2021/12/06 17:51:54;;;;;;;4.82;3.42;;;;;;;-2.94;100.00;94472.09;5045278;28;20036;-64
2021/12/06 17:54:23;;;;;;;5.47;3.60;;;;;;;-2.92;100.00;94470.09;5051366;28;20029;-64
2021/12/06 17:56:58;;;;;;;6.93;3.78;;;;;;;-2.89;100.00;94468.88;5036478;28;20029;-63
2021/12/06 17:59:29;;;;;;;7.20;4.10;;;;;;;-2.84;100.00;94454.19;5042881;28;20033;-63
2021/12/06 18:01:59;;;;;;;6.18;3.83;;;;;;;-2.76;100.00;94438.28;5048293;28;20028;-64
2021/12/06 18:04:27;;;;;;;5.68;3.70;;;;;;;-2.68;100.00;94437.28;5049028;28;20534;-64
2021/12/06 18:07:00;;;;;;;5.65;3.88;;;;;;;-2.68;100.00;94427.63;5034981;28;20059;-63
2021/12/06 18:09:26;;;;;;;7.97;4.90;;;;;;;-2.67;100.00;94417.94;5033448;28;20014;-64
2021/12/06 18:12:00;;;;;;;7.47;3.97;;;;;;;-2.67;100.00;94400.38;5051604;28;20498;-63
2021/12/06 18:14:37;;;;;;;6.03;4.05;;;;;;;-2.65;100.00;94395.75;5054550;28;20111;-63
2021/12/06 18:17:03;;;;;;;7.95;4.32;;;;;;;-2.60;100.00;94395.16;5054601;28;20021;-63
2021/12/06 18:19:35;;;;;;;7.43;4.13;;;;;;;-2.63;100.00;94398.97;5053172;28;20476;-63
2021/12/06 18:22:01;;;;;;;8.50;4.75;;;;;;;-2.67;100.00;94397.78;5053084;28;20057;-63
2021/12/06 18:24:34;;;;;;;6.82;4.20;;;;;;;-2.67;100.00;94383.84;5052995;28;20064;-59
2021/12/06 18:27:00;;;;;;;7.30;4.43;;;;;;;-2.57;100.00;94383.47;5054211;28;20033;-63
2021/12/06 18:29:26;;;;;;;8.75;5.93;;;;;;;-2.49;100.00;94378.84;5054273;28;20024;-63
2021/12/06 18:31:54;;;;;;;6.10;4.32;;;;;;;-2.45;100.00;94380.03;5040969;28;20127;-63
2021/12/06 18:34:23;;;;;;;8.05;5.15;;;;;;;-2.41;100.00;94370.75;5054101;28;20036;-63
2021/12/06 18:36:52;;;;;;;8.30;5.57;;;;;;;-2.38;100.00;94372.19;5036039;28;20025;-63
2021/12/06 18:39:22;;;;;;;7.88;4.90;;;;;;;-2.40;100.00;94369.72;5051229;28;20041;-62
2021/12/06 18:41:51;;;;;;;7.30;4.88;;;;;;;-2.44;100.00;94371.16;5053941;28;20064;-62
2021/12/06 18:45:10;;;;;;;10.88;6.63;;;;;;;-2.46;100.00;94375.00;5054037;28;20029;-61
2021/12/06 18:47:43;;;;;;;10.82;5.75;;;;;;;-2.42;100.00;94370.94;5046581;28;20033;-62
2021/12/06 18:50:14;;;;;;;12.02;6.32;;;;;;;-2.42;100.00;94365.69;5053591;28;20032;-61
2021/12/06 18:52:40;;;;;;;13.18;6.10;;;;;;;-2.45;100.00;94368.75;5053784;28;20075;-63
2021/12/06 18:55:07;;;;;;;8.88;5.13;;;;;;;-2.49;100.00;94368.34;5053628;28;20040;-62
2021/12/06 18:57:34;;;;;;;7.22;5.13;;;;;;;-2.52;100.00;94360.06;5053676;28;20025;-63
2021/12/06 19:00:09;;;;;;;9.23;5.72;;;;;;;-2.51;100.00;94356.41;5052412;28;20028;-61
2021/12/06 19:02:41;;;;;;;10.07;6.60;;;;;;;-2.54;100.00;94352.41;5052607;28;20103;-60
2021/12/06 19:05:10;;;;;;;10.30;6.28;;;;;;;-2.55;100.00;94353.41;5052737;28;20107;-59
2021/12/06 19:07:37;;;;;;;11.73;7.00;;;;;;;-2.56;100.00;94361.47;5053302;28;20025;-62
2021/12/06 19:10:04;;;;;;;10.48;6.53;;;;;;;-2.58;100.00;94366.94;5052555;28;20035;-62
2021/12/06 19:12:34;;;;;;;8.75;5.75;;;;;;;-2.64;100.00;94367.72;5053202;28;20033;-60
2021/12/06 19:15:07;;;;;;;9.18;6.32;;;;;;;-2.65;100.00;94363.47;5052251;28;20557;-61
2021/12/06 19:17:33;;;;;;;;;;;;;;;-2.61;100.00;94369.94;5052522;28;20032;-62
2021/12/06 19:19:59;;;;;;;10.38;7.13;;;;;;;-2.46;100.00;94362.69;5052035;28;20269;-62
2021/12/06 19:22:24;;;;;;;12.93;7.15;;;;;;;-2.42;100.00;94353.41;5051730;28;20440;-60
2021/12/06 19:24:53;;;;;;;10.65;7.18;;;;;;;-2.39;100.00;94360.03;5053144;28;20139;-62
2021/12/06 19:27:24;;;;;;;11.25;7.57;;;;;;;-2.39;100.00;94365.28;5053227;28;20075;-62
2021/12/06 19:29:52;;;;;;;12.50;7.43;;;;;;;-2.42;100.00;94369.13;5053033;28;20059;-60
2021/12/06 19:32:21;;;;;;;19.27;8.00;;;;;;;-2.39;100.00;94373.16;5052981;28;20025;-61
2021/12/06 19:34:47;;;;;;;12.90;7.70;;;;;;;-2.30;100.00;94373.75;5052809;28;20027;-62
2021/12/06 19:37:17;;;;;;;11.73;6.97;;;;;;;-2.30;100.00;94376.38;5052912;28;20119;-63
2021/12/06 19:39:44;;;;;;;11.68;7.82;;;;;;;-2.36;100.00;94381.44;5051086;28;20041;-63
2021/12/06 19:42:16;;;;;;;12.52;7.90;;;;;;;-2.42;100.00;94387.50;5051391;28;20028;-62
2021/12/06 19:44:43;;;;;;;11.68;6.60;;;;;;;-2.47;100.00;94389.91;5052927;28;20028;-63
2021/12/06 19:47:12;;;;;;;12.85;6.97;;;;;;;-2.48;100.00;94395.38;5052453;28;20468;-63
2021/12/06 19:49:44;;;;;;;11.10;7.45;;;;;;;-2.54;100.00;94399.59;5052764;28;20383;-62
2021/12/06 19:52:12;;;;;;;10.52;6.85;;;;;;;-2.59;100.00;94409.06;5031490;28;20412;-60
2021/12/06 19:54:41;;;;;;;11.65;7.03;;;;;;;-2.62;100.00;94421.56;5031435;28;20033;-60
2021/12/06 19:57:23;;;;;;;11.32;7.20;;;;;;;-2.59;100.00;94419.56;5032644;28;20065;-61
2021/12/06 19:59:48;;;;;;;10.73;7.40;;;;;;;-2.52;100.00;94418.53;5032445;28;20040;-60
2021/12/06 20:02:28;;;;;;;11.65;7.50;;;;;;;-2.44;100.00;94417.56;5031281;28;20087;-60
2021/12/06 20:04:54;;;;;;;13.40;8.52;;;;;;;-2.39;100.00;94415.13;5032639;28;20029;-61
2021/12/06 20:07:22;;;;;;;12.00;7.65;;;;;;;-2.39;100.00;94396.75;5036457;28;20021;-62
2021/12/06 20:09:51;;;;;;;11.10;7.03;;;;;;;-2.38;100.00;94399.22;5032750;28;20464;-62
2021/12/06 20:12:16;;;;;;;12.07;7.28;;;;;;;-2.39;100.00;94400.22;5043774;28;20020;-61
2021/12/06 20:14:44;;;;;;;13.40;6.90;;;;;;;-2.42;100.00;94405.03;5032234;28;20615;-62
2021/12/06 20:17:19;;;;;;;10.95;7.13;;;;;;;-2.46;100.00;94401.22;5040668;28;20107;-61
2021/12/06 20:19:53;;;;;;;11.57;7.35;;;;;;;-2.48;100.00;94396.19;5041888;28;20057;-61
2021/12/06 20:22:19;;;;;;;12.18;6.97;;;;;;;-2.47;100.00;94400.41;5043604;28;20028;-61
2021/12/06 20:24:49;;;;;;;12.95;7.07;;;;;;;-2.39;100.00;94394.13;5032247;28;20068;-61
2021/12/06 20:27:24;;;;;;;15.45;7.15;;;;;;;-2.22;100.00;94386.69;5045948;28;20020;-62
2021/12/06 20:29:52;;;;;;;11.57;7.25;;;;;;;-2.05;100.00;94383.44;5033820;28;20026;-61
2021/12/06 20:32:18;;;;;;;10.93;7.32;;;;;;;-1.92;100.00;94379.19;5039460;28;20049;-62
2021/12/06 20:34:52;;;;;;;12.75;7.32;;;;;;;-1.82;100.00;94369.88;5038083;28;20476;-63
2021/12/06 20:37:24;;;;;;;12.60;7.10;;;;;;;-1.73;100.00;94367.03;5043652;28;20022;-61
2021/12/06 20:39:49;;;;;;;12.02;7.50;;;;;;;-1.72;100.00;94366.81;5049790;28;20036;-62
2021/12/06 20:42:15;;;;;;;12.85;7.75;;;;;;;-1.70;100.00;94364.78;5032460;28;20108;-60
2021/12/06 20:44:41;;;;;;;12.05;7.38;;;;;;;-1.66;100.00;94359.91;5042523;28;20464;-63
2021/12/06 20:47:09;;;;;;;15.32;7.85;;;;;;;-1.67;100.00;94356.47;5029329;28;20071;-63
2021/12/06 20:49:34;;;;;;;11.73;7.43;;;;;;;-1.70;100.00;94349.03;5039496;28;20048;-63
2021/12/06 20:52:00;;;;;;;11.73;7.50;;;;;;;-1.75;100.00;94341.75;5046122;28;20045;-62
2021/12/06 20:54:25;;;;;;;11.93;8.25;;;;;;;-1.76;100.00;94342.78;5039556;28;20496;-63
2021/12/06 20:56:51;;;;;;;13.32;7.57;;;;;;;-1.76;100.00;94349.84;5047484;28;20039;-62
2021/12/06 20:59:24;;;;;;;12.27;7.25;;;;;;;-1.77;100.00;94335.91;5036169;28;20465;-61
2021/12/06 21:01:52;;;;;;;10.48;6.78;;;;;;;-1.72;100.00;94348.44;5037167;28;20044;-61
2021/12/06 21:04:17;;;;;;;10.52;6.82;;;;;;;-1.69;100.00;94352.47;5045245;28;20448;-60
2021/12/06 21:06:43;;;;;;;9.10;6.45;;;;;;;-1.69;100.00;94350.63;5050389;28;20028;-60
2021/12/06 21:09:16;;;;;;;10.63;6.38;;;;;;;-1.66;100.00;94346.78;5050125;28;20017;-61
2021/12/06 21:12:00;;;;;;;9.32;6.25;;;;;;;-1.67;100.00;94342.56;5035885;28;20061;-62
2021/12/06 21:17:19;;;;;;;7.88;5.68;;;;;;;-1.64;100.00;94339.50;5054040;28;20037;-62
2021/12/06 21:19:50;;;;;;;8.48;6.18;;;;;;;-1.67;100.00;94326.81;5055379;28;20021;-61
2021/12/06 21:22:16;;;;;;;13.80;7.00;;;;;;;-1.69;100.00;94334.09;5043721;28;20035;-60
2021/12/06 21:24:51;;;;;;;9.65;6.07;;;;;;;-1.70;100.00;94330.66;5022650;28;20044;-62
2021/12/06 21:27:20;;;;;;;9.38;5.85;;;;;;;-1.68;100.00;94326.00;5049988;28;20021;-62
2021/12/06 21:29:51;;;;;;;9.60;5.88;;;;;;;-1.61;100.00;94325.97;5036917;28;20028;-62
2021/12/06 21:32:17;;;;;;;10.23;5.80;;;;;;;-1.55;100.00;94320.69;5035302;28;20033;-62
2021/12/06 21:34:46;;;;;;;10.15;6.25;;;;;;;-1.51;100.00;94310.59;5042421;28;20032;-61
2021/12/06 21:37:21;;;;;;;8.13;5.32;;;;;;;-1.46;100.00;94292.38;5049235;28;20407;-62
2021/12/06 21:39:47;;;;;;;7.32;5.53;;;;;;;-1.38;100.00;94278.19;5040027;28;20106;-60
2021/12/06 21:42:14;;;;;;;7.65;5.60;;;;;;;-1.34;100.00;94282.81;5020161;28;20439;-58
2021/12/06 21:44:46;;;;;;;7.72;5.05;;;;;;;-1.31;100.00;94282.38;5046765;28;20119;-62
2021/12/06 21:47:12;;;;;;;6.88;5.05;;;;;;;-1.28;100.00;94281.16;5029196;28;20037;-61
2021/12/06 21:49:41;;;;;;;7.35;4.90;;;;;;;-1.26;100.00;94274.69;5038689;28;20504;-62
2021/12/06 21:52:09;;;;;;;7.30;5.03;;;;;;;-1.17;100.00;94277.88;5041754;28;20078;-63
2021/12/06 21:54:35;;;;;;;7.70;4.50;;;;;;;-1.10;100.00;94264.66;5047283;28;20017;-61
2021/12/06 21:57:00;;;;;;;6.47;4.57;;;;;;;-0.99;100.00;94263.97;5053739;28;20380;-60
2021/12/06 21:59:26;;;;;;;7.32;5.32;;;;;;;-0.89;100.00;94278.25;5054685;28;20036;-63
2021/12/06 22:01:53;;;;;;;8.98;4.72;;;;;;;-0.77;100.00;94277.56;5053651;28;20032;-62
2021/12/06 22:04:18;;;;;;;6.80;4.20;;;;;;;-0.69;100.00;94277.28;5053530;28;20025;-61
2021/12/06 22:06:47;;;;;;;6.78;5.00;;;;;;;-0.67;100.00;94270.78;5053493;28;20084;-62
2021/12/06 22:09:12;;;;;;;8.00;4.95;;;;;;;-0.63;100.00;94265.94;5054564;28;20025;-61
2021/12/06 22:11:38;;;;;;;8.20;5.03;;;;;;;-0.59;100.00;94269.72;5054069;28;20044;-60
2021/12/06 22:14:04;;;;;;;8.07;5.13;;;;;;;-0.51;100.00;94269.47;5053429;28;20527;-61
2021/12/06 22:16:34;;;;;;;7.70;6.03;;;;;;;-0.48;100.00;94269.03;5054556;28;20063;-62
2021/12/06 22:19:05;;;;;;;7.55;5.93;;;;;;;-0.48;100.00;94263.75;5053244;28;20021;-63
2021/12/06 22:21:33;;;;;;;6.72;4.72;;;;;;;-0.50;100.00;94249.22;5053169;28;20043;-63
2021/12/06 22:24:02;;;;;;;4.65;3.78;;;;;;;-0.54;100.00;94242.75;5053320;28;20021;-63
2021/12/06 22:26:36;;;;;;;4.88;3.60;;;;;;;-0.51;100.00;94243.16;5054513;28;20136;-63
2021/12/06 22:29:04;;;;;;;4.68;3.80;;;;;;;-0.48;100.00;94242.72;5036434;28;20096;-63
2021/12/06 22:31:33;;;;;;;5.45;3.50;;;;;;;-0.44;100.00;94235.19;5053226;28;20190;-63
2021/12/06 22:33:59;;;;;;;5.88;3.70;;;;;;;-0.43;100.00;94234.19;5054022;28;20025;-63
2021/12/06 22:36:24;;;;;;;5.40;3.35;;;;;;;-0.45;100.00;94226.50;5053193;28;20021;-63
2021/12/06 22:38:53;;;;;;;4.60;3.25;;;;;;;-0.44;100.00;94228.09;5052789;28;20044;-63
2021/12/06 22:41:25;;;;;;;4.85;3.17;;;;;;;-0.45;100.00;94234.38;5054431;28;20368;-63
2021/12/06 22:43:54;;;;;;;4.22;2.92;;;;;;;-0.42;100.00;94231.34;5053147;28;20104;-63
2021/12/06 22:46:24;;;;;;;4.25;2.67;;;;;;;-0.41;100.00;94240.03;5054130;28;20024;-63
2021/12/06 22:48:51;;;;;;;4.55;3.00;;;;;;;-0.38;100.00;94240.38;5052992;28;20078;-63
2021/12/06 22:51:16;;;;;;;3.83;2.97;;;;;;;-0.23;100.00;94255.00;5054070;28;20047;-63
2021/12/06 22:53:41;;;;;;;3.53;2.67;;;;;;;-0.17;100.00;94254.97;5052668;28;20029;-63
2021/12/06 22:56:07;;;;;;;3.70;2.60;;;;;;;-0.16;100.00;94261.81;5053991;28;20503;-63
2021/12/06 22:58:32;;;;;;;4.40;2.38;;;;;;;-0.15;100.00;94252.91;5035952;28;20035;-63
2021/12/06 23:01:04;;;;;;;2.97;2.30;;;;;;;-0.14;100.00;94243.97;5052432;28;20395;-63
2021/12/06 23:03:32;;;;;;;3.30;2.67;;;;;;;-0.15;100.00;94246.84;5052469;28;20025;-63
2021/12/06 23:06:01;;;;;;;3.47;2.25;;;;;;;-0.13;100.00;94242.97;5053712;28;20035;-63
2021/12/06 23:08:30;;;;;;;3.08;2.30;;;;;;;-0.03;100.00;94242.44;5052343;28;20025;-63
2021/12/06 23:10:59;;;;;;;4.60;2.53;;;;;;;-0.01;100.00;94235.13;5053614;28;20427;-63
2021/12/06 23:13:25;;;;;;;3.70;2.42;;;;;;;-0.04;100.00;94217.94;5013528;23;20496;-66
2021/12/06 23:15:59;;;;;;;3.20;2.35;;;;;;;-0.08;100.00;94216.78;4994984;28;20045;-66
2021/12/06 23:18:25;;;;;;;3.15;2.40;;;;;;;-0.05;100.00;94210.28;4986879;28;20104;-66
2021/12/06 23:20:55;;;;;;;6.25;2.50;;;;;;;-0.02;100.00;94204.56;5009741;28;20497;-66
2021/12/06 23:23:20;;;;;;;4.80;2.63;;;;;;;-0.02;100.00;94204.56;5005962;28;20045;-66
